sensor_id;sensor_type;location;lat;lon;timestamp;P1;durP1;ratioP1;P2;durP2;ratioP2
75990;SDS011;64673;52.276;10.560;2023-09-18T00:00:08;1.92;;;1.13;;
75990;SDS011;64673;52.276;10.560;2023-09-18T00:02:36;2.63;;;1.42;;
75990;SDS011;64673;52.276;10.560;2023-09-18T00:05:03;2.60;;;1.25;;
75990;SDS011;64673;52.276;10.560;2023-09-18T00:07:29;2.35;;;1.30;;
75990;SDS011;64673;52.276;10.560;2023-09-18T00:09:54;2.00;;;1.10;;
75990;SDS011;64673;52.276;10.560;2023-09-18T00:12:19;2.42;;;1.48;;
75990;SDS011;64673;52.276;10.560;2023-09-18T00:14:47;2.00;;;1.10;;
75990;SDS011;64673;52.276;10.560;2023-09-18T00:17:14;1.63;;;1.17;;
75990;SDS011;64673;52.276;10.560;2023-09-18T00:19:39;1.48;;;0.93;;
75990;SDS011;64673;52.276;10.560;2023-09-18T00:22:04;1.67;;;1.00;;
75990;SDS011;64673;52.276;10.560;2023-09-18T00:24:29;2.22;;;1.33;;
75990;SDS011;64673;52.276;10.560;2023-09-18T00:26:55;2.50;;;1.20;;
75990;SDS011;64673;52.276;10.560;2023-09-18T00:29:20;1.52;;;1.20;;
75990;SDS011;64673;52.276;10.560;2023-09-18T00:31:46;2.42;;;1.13;;
75990;SDS011;64673;52.276;10.560;2023-09-18T00:34:11;1.70;;;1.35;;
75990;SDS011;64673;52.276;10.560;2023-09-18T00:36:36;2.15;;;1.48;;
75990;SDS011;64673;52.276;10.560;2023-09-18T00:39:02;2.65;;;1.35;;
75990;SDS011;64673;52.276;10.560;2023-09-18T00:41:28;2.47;;;1.63;;
75990;SDS011;64673;52.276;10.560;2023-09-18T00:43:53;2.20;;;1.40;;
75990;SDS011;64673;52.276;10.560;2023-09-18T00:46:19;3.28;;;1.45;;
75990;SDS011;64673;52.276;10.560;2023-09-18T00:48:45;4.13;;;1.75;;
75990;SDS011;64673;52.276;10.560;2023-09-18T00:51:11;4.50;;;1.23;;
75990;SDS011;64673;52.276;10.560;2023-09-18T00:53:37;2.53;;;1.42;;
75990;SDS011;64673;52.276;10.560;2023-09-18T00:56:03;2.90;;;1.65;;
75990;SDS011;64673;52.276;10.560;2023-09-18T00:58:28;3.35;;;1.40;;
75990;SDS011;64673;52.276;10.560;2023-09-18T01:00:54;1.52;;;0.98;;
75990;SDS011;64673;52.276;10.560;2023-09-18T01:03:20;2.33;;;1.40;;
75990;SDS011;64673;52.276;10.560;2023-09-18T01:05:46;3.40;;;1.40;;
75990;SDS011;64673;52.276;10.560;2023-09-18T01:08:11;2.72;;;1.17;;
75990;SDS011;64673;52.276;10.560;2023-09-18T01:10:40;3.05;;;1.70;;
75990;SDS011;64673;52.276;10.560;2023-09-18T01:13:14;4.63;;;1.70;;
75990;SDS011;64673;52.276;10.560;2023-09-18T01:15:57;3.00;;;1.45;;
75990;SDS011;64673;52.276;10.560;2023-09-18T01:18:27;2.33;;;1.20;;
75990;SDS011;64673;52.276;10.560;2023-09-18T01:20:53;1.98;;;1.33;;
75990;SDS011;64673;52.276;10.560;2023-09-18T01:23:18;4.40;;;1.65;;
75990;SDS011;64673;52.276;10.560;2023-09-18T01:25:43;3.25;;;1.45;;
75990;SDS011;64673;52.276;10.560;2023-09-18T01:28:09;2.00;;;1.13;;
75990;SDS011;64673;52.276;10.560;2023-09-18T01:30:34;1.85;;;1.17;;
75990;SDS011;64673;52.276;10.560;2023-09-18T01:33:00;2.63;;;1.50;;
75990;SDS011;64673;52.276;10.560;2023-09-18T01:35:27;3.42;;;1.80;;
75990;SDS011;64673;52.276;10.560;2023-09-18T01:38:00;3.70;;;1.95;;
75990;SDS011;64673;52.276;10.560;2023-09-18T01:40:28;4.15;;;1.70;;
75990;SDS011;64673;52.276;10.560;2023-09-18T01:42:53;5.22;;;1.58;;
75990;SDS011;64673;52.276;10.560;2023-09-18T01:45:19;4.30;;;1.75;;
75990;SDS011;64673;52.276;10.560;2023-09-18T01:47:45;3.22;;;1.60;;
75990;SDS011;64673;52.276;10.560;2023-09-18T01:50:11;5.45;;;2.05;;
75990;SDS011;64673;52.276;10.560;2023-09-18T01:52:37;3.63;;;1.52;;
75990;SDS011;64673;52.276;10.560;2023-09-18T01:55:02;3.03;;;1.70;;
75990;SDS011;64673;52.276;10.560;2023-09-18T01:59:54;1.58;;;1.35;;
75990;SDS011;64673;52.276;10.560;2023-09-18T02:02:20;4.38;;;1.70;;
75990;SDS011;64673;52.276;10.560;2023-09-18T02:04:45;2.17;;;1.58;;
75990;SDS011;64673;52.276;10.560;2023-09-18T02:07:11;2.75;;;1.48;;
75990;SDS011;64673;52.276;10.560;2023-09-18T02:09:36;2.67;;;1.60;;
75990;SDS011;64673;52.276;10.560;2023-09-18T02:12:02;3.60;;;2.13;;
75990;SDS011;64673;52.276;10.560;2023-09-18T02:14:27;3.70;;;1.80;;
75990;SDS011;64673;52.276;10.560;2023-09-18T02:16:56;5.70;;;1.75;;
75990;SDS011;64673;52.276;10.560;2023-09-18T02:19:21;3.00;;;1.60;;
75990;SDS011;64673;52.276;10.560;2023-09-18T02:21:46;3.42;;;1.48;;
75990;SDS011;64673;52.276;10.560;2023-09-18T02:24:12;3.63;;;1.70;;
75990;SDS011;64673;52.276;10.560;2023-09-18T02:26:37;3.00;;;2.17;;
75990;SDS011;64673;52.276;10.560;2023-09-18T02:29:05;3.80;;;1.42;;
75990;SDS011;64673;52.276;10.560;2023-09-18T02:31:32;3.17;;;1.90;;
75990;SDS011;64673;52.276;10.560;2023-09-18T02:33:58;2.70;;;1.55;;
75990;SDS011;64673;52.276;10.560;2023-09-18T02:36:23;2.50;;;1.40;;
75990;SDS011;64673;52.276;10.560;2023-09-18T02:38:48;3.08;;;1.70;;
75990;SDS011;64673;52.276;10.560;2023-09-18T02:41:14;3.08;;;1.70;;
75990;SDS011;64673;52.276;10.560;2023-09-18T02:43:39;3.42;;;1.90;;
75990;SDS011;64673;52.276;10.560;2023-09-18T02:46:05;3.42;;;1.90;;
75990;SDS011;64673;52.276;10.560;2023-09-18T02:48:31;2.90;;;1.35;;
75990;SDS011;64673;52.276;10.560;2023-09-18T02:50:58;5.10;;;1.73;;
75990;SDS011;64673;52.276;10.560;2023-09-18T02:53:27;3.13;;;1.67;;
75990;SDS011;64673;52.276;10.560;2023-09-18T02:55:54;3.60;;;1.52;;
75990;SDS011;64673;52.276;10.560;2023-09-18T03:00:46;3.80;;;1.48;;
75990;SDS011;64673;52.276;10.560;2023-09-18T03:03:13;3.05;;;1.77;;
75990;SDS011;64673;52.276;10.560;2023-09-18T03:05:40;2.70;;;1.73;;
75990;SDS011;64673;52.276;10.560;2023-09-18T03:08:06;2.63;;;1.33;;
75990;SDS011;64673;52.276;10.560;2023-09-18T03:10:38;2.58;;;1.20;;
75990;SDS011;64673;52.276;10.560;2023-09-18T03:13:05;2.75;;;1.77;;
75990;SDS011;64673;52.276;10.560;2023-09-18T03:15:32;3.35;;;1.58;;
75990;SDS011;64673;52.276;10.560;2023-09-18T03:17:57;3.85;;;1.85;;
75990;SDS011;64673;52.276;10.560;2023-09-18T03:20:27;4.15;;;1.83;;
75990;SDS011;64673;52.276;10.560;2023-09-18T03:22:54;2.78;;;1.77;;
75990;SDS011;64673;52.276;10.560;2023-09-18T03:25:21;5.68;;;1.40;;
75990;SDS011;64673;52.276;10.560;2023-09-18T03:27:47;3.63;;;2.17;;
75990;SDS011;64673;52.276;10.560;2023-09-18T03:30:12;4.78;;;2.08;;
75990;SDS011;64673;52.276;10.560;2023-09-18T03:32:42;2.92;;;1.67;;
75990;SDS011;64673;52.276;10.560;2023-09-18T03:35:07;2.53;;;1.40;;
75990;SDS011;64673;52.276;10.560;2023-09-18T03:37:52;2.90;;;1.67;;
75990;SDS011;64673;52.276;10.560;2023-09-18T03:40:21;2.90;;;1.50;;
75990;SDS011;64673;52.276;10.560;2023-09-18T03:42:47;3.17;;;1.83;;
75990;SDS011;64673;52.276;10.560;2023-09-18T03:45:14;3.05;;;1.60;;
75990;SDS011;64673;52.276;10.560;2023-09-18T03:47:40;3.20;;;1.60;;
75990;SDS011;64673;52.276;10.560;2023-09-18T03:52:32;2.92;;;1.73;;
75990;SDS011;64673;52.276;10.560;2023-09-18T03:54:57;3.67;;;1.83;;
75990;SDS011;64673;52.276;10.560;2023-09-18T03:57:23;2.72;;;1.60;;
75990;SDS011;64673;52.276;10.560;2023-09-18T03:59:49;3.13;;;1.90;;
75990;SDS011;64673;52.276;10.560;2023-09-18T04:02:14;2.55;;;1.38;;
75990;SDS011;64673;52.276;10.560;2023-09-18T04:04:39;3.67;;;1.90;;
75990;SDS011;64673;52.276;10.560;2023-09-18T04:07:05;4.03;;;2.03;;
75990;SDS011;64673;52.276;10.560;2023-09-18T04:09:31;3.10;;;1.63;;
75990;SDS011;64673;52.276;10.560;2023-09-18T04:11:56;3.10;;;1.73;;
75990;SDS011;64673;52.276;10.560;2023-09-18T04:14:22;3.78;;;1.73;;
75990;SDS011;64673;52.276;10.560;2023-09-18T04:16:47;3.67;;;1.88;;
75990;SDS011;64673;52.276;10.560;2023-09-18T04:19:13;3.22;;;1.80;;
75990;SDS011;64673;52.276;10.560;2023-09-18T04:21:38;3.55;;;1.85;;
75990;SDS011;64673;52.276;10.560;2023-09-18T04:24:04;3.55;;;1.77;;
75990;SDS011;64673;52.276;10.560;2023-09-18T04:26:29;6.80;;;1.92;;
75990;SDS011;64673;52.276;10.560;2023-09-18T04:28:56;3.30;;;1.92;;
75990;SDS011;64673;52.276;10.560;2023-09-18T04:31:22;3.90;;;2.25;;
75990;SDS011;64673;52.276;10.560;2023-09-18T04:33:48;5.50;;;1.50;;
75990;SDS011;64673;52.276;10.560;2023-09-18T04:36:13;3.53;;;1.92;;
75990;SDS011;64673;52.276;10.560;2023-09-18T04:38:38;3.20;;;1.60;;
75990;SDS011;64673;52.276;10.560;2023-09-18T04:41:04;3.10;;;1.75;;
75990;SDS011;64673;52.276;10.560;2023-09-18T04:43:29;3.47;;;1.67;;
75990;SDS011;64673;52.276;10.560;2023-09-18T04:45:55;4.68;;;2.17;;
75990;SDS011;64673;52.276;10.560;2023-09-18T04:48:21;4.00;;;1.95;;
75990;SDS011;64673;52.276;10.560;2023-09-18T04:50:46;3.15;;;1.73;;
75990;SDS011;64673;52.276;10.560;2023-09-18T04:53:12;5.88;;;2.30;;
75990;SDS011;64673;52.276;10.560;2023-09-18T04:55:38;2.95;;;1.73;;
75990;SDS011;64673;52.276;10.560;2023-09-18T04:58:03;3.00;;;1.88;;
75990;SDS011;64673;52.276;10.560;2023-09-18T05:00:29;4.95;;;1.70;;
75990;SDS011;64673;52.276;10.560;2023-09-18T05:02:56;3.53;;;2.05;;
75990;SDS011;64673;52.276;10.560;2023-09-18T05:05:25;2.72;;;1.65;;
75990;SDS011;64673;52.276;10.560;2023-09-18T05:07:50;4.68;;;1.80;;
75990;SDS011;64673;52.276;10.560;2023-09-18T05:10:15;4.32;;;2.10;;
75990;SDS011;64673;52.276;10.560;2023-09-18T05:12:41;2.45;;;1.70;;
75990;SDS011;64673;52.276;10.560;2023-09-18T05:15:07;2.70;;;1.67;;
75990;SDS011;64673;52.276;10.560;2023-09-18T05:17:41;3.15;;;1.45;;
75990;SDS011;64673;52.276;10.560;2023-09-18T05:20:20;2.97;;;1.48;;
75990;SDS011;64673;52.276;10.560;2023-09-18T05:22:49;3.20;;;2.03;;
75990;SDS011;64673;52.276;10.560;2023-09-18T05:25:14;3.47;;;1.73;;
75990;SDS011;64673;52.276;10.560;2023-09-18T05:27:40;2.90;;;1.75;;
75990;SDS011;64673;52.276;10.560;2023-09-18T05:30:12;3.83;;;2.10;;
75990;SDS011;64673;52.276;10.560;2023-09-18T05:32:40;2.60;;;1.60;;
75990;SDS011;64673;52.276;10.560;2023-09-18T05:35:06;3.53;;;1.80;;
75990;SDS011;64673;52.276;10.560;2023-09-18T05:37:32;2.80;;;1.75;;
75990;SDS011;64673;52.276;10.560;2023-09-18T05:39:57;3.03;;;1.90;;
75990;SDS011;64673;52.276;10.560;2023-09-18T05:42:23;3.97;;;1.63;;
75990;SDS011;64673;52.276;10.560;2023-09-18T05:44:48;3.15;;;1.50;;
75990;SDS011;64673;52.276;10.560;2023-09-18T05:47:14;2.80;;;1.65;;
75990;SDS011;64673;52.276;10.560;2023-09-18T05:49:39;2.65;;;1.63;;
75990;SDS011;64673;52.276;10.560;2023-09-18T05:52:04;2.78;;;1.83;;
75990;SDS011;64673;52.276;10.560;2023-09-18T05:54:30;2.17;;;1.38;;
75990;SDS011;64673;52.276;10.560;2023-09-18T05:56:55;3.33;;;1.45;;
75990;SDS011;64673;52.276;10.560;2023-09-18T05:59:21;3.95;;;1.83;;
75990;SDS011;64673;52.276;10.560;2023-09-18T06:01:46;3.53;;;1.95;;
75990;SDS011;64673;52.276;10.560;2023-09-18T06:04:13;3.13;;;1.70;;
75990;SDS011;64673;52.276;10.560;2023-09-18T06:06:38;2.75;;;1.60;;
75990;SDS011;64673;52.276;10.560;2023-09-18T06:09:04;4.00;;;1.92;;
75990;SDS011;64673;52.276;10.560;2023-09-18T06:11:29;2.72;;;1.58;;
75990;SDS011;64673;52.276;10.560;2023-09-18T06:13:55;1.40;;;0.95;;
75990;SDS011;64673;52.276;10.560;2023-09-18T06:16:20;2.80;;;1.73;;
75990;SDS011;64673;52.276;10.560;2023-09-18T06:18:45;3.60;;;1.92;;
75990;SDS011;64673;52.276;10.560;2023-09-18T06:21:11;2.75;;;1.38;;
75990;SDS011;64673;52.276;10.560;2023-09-18T06:23:36;2.83;;;1.83;;
75990;SDS011;64673;52.276;10.560;2023-09-18T06:26:02;2.53;;;1.65;;
75990;SDS011;64673;52.276;10.560;2023-09-18T06:28:29;3.42;;;2.00;;
75990;SDS011;64673;52.276;10.560;2023-09-18T06:30:54;3.15;;;1.58;;
75990;SDS011;64673;52.276;10.560;2023-09-18T06:33:20;2.40;;;1.60;;
75990;SDS011;64673;52.276;10.560;2023-09-18T06:35:45;2.58;;;1.60;;
75990;SDS011;64673;52.276;10.560;2023-09-18T06:38:11;2.53;;;1.50;;
75990;SDS011;64673;52.276;10.560;2023-09-18T06:40:39;2.10;;;1.15;;
75990;SDS011;64673;52.276;10.560;2023-09-18T06:45:29;2.50;;;1.50;;
75990;SDS011;64673;52.276;10.560;2023-09-18T06:47:55;2.22;;;1.52;;
75990;SDS011;64673;52.276;10.560;2023-09-18T06:50:20;3.05;;;1.45;;
75990;SDS011;64673;52.276;10.560;2023-09-18T06:52:46;3.28;;;1.60;;
75990;SDS011;64673;52.276;10.560;2023-09-18T06:55:11;2.90;;;1.30;;
75990;SDS011;64673;52.276;10.560;2023-09-18T06:57:37;2.33;;;1.38;;
75990;SDS011;64673;52.276;10.560;2023-09-18T07:00:02;3.78;;;2.33;;
75990;SDS011;64673;52.276;10.560;2023-09-18T07:02:29;2.55;;;1.40;;
75990;SDS011;64673;52.276;10.560;2023-09-18T07:04:55;2.38;;;1.50;;
75990;SDS011;64673;52.276;10.560;2023-09-18T07:07:20;3.30;;;1.38;;
75990;SDS011;64673;52.276;10.560;2023-09-18T07:09:50;2.65;;;1.27;;
75990;SDS011;64673;52.276;10.560;2023-09-18T07:12:16;3.22;;;1.60;;
75990;SDS011;64673;52.276;10.560;2023-09-18T07:14:44;2.33;;;1.25;;
75990;SDS011;64673;52.276;10.560;2023-09-18T07:17:12;2.10;;;1.27;;
75990;SDS011;64673;52.276;10.560;2023-09-18T07:19:38;1.95;;;1.30;;
75990;SDS011;64673;52.276;10.560;2023-09-18T07:22:03;1.80;;;1.40;;
75990;SDS011;64673;52.276;10.560;2023-09-18T07:24:29;2.03;;;1.17;;
75990;SDS011;64673;52.276;10.560;2023-09-18T07:26:54;2.58;;;1.20;;
75990;SDS011;64673;52.276;10.560;2023-09-18T07:29:20;2.97;;;1.60;;
75990;SDS011;64673;52.276;10.560;2023-09-18T07:31:46;2.42;;;1.55;;
75990;SDS011;64673;52.276;10.560;2023-09-18T07:34:12;2.83;;;1.30;;
75990;SDS011;64673;52.276;10.560;2023-09-18T07:36:38;2.75;;;1.10;;
75990;SDS011;64673;52.276;10.560;2023-09-18T07:39:04;2.13;;;1.10;;
75990;SDS011;64673;52.276;10.560;2023-09-18T07:41:29;2.72;;;1.55;;
75990;SDS011;64673;52.276;10.560;2023-09-18T07:43:56;2.22;;;1.30;;
75990;SDS011;64673;52.276;10.560;2023-09-18T07:46:23;2.20;;;1.40;;
75990;SDS011;64673;52.276;10.560;2023-09-18T07:48:48;2.80;;;1.88;;
75990;SDS011;64673;52.276;10.560;2023-09-18T07:51:14;2.25;;;1.33;;
75990;SDS011;64673;52.276;10.560;2023-09-18T07:53:41;1.92;;;1.27;;
75990;SDS011;64673;52.276;10.560;2023-09-18T07:56:07;2.65;;;1.67;;
75990;SDS011;64673;52.276;10.560;2023-09-18T07:58:32;2.20;;;1.58;;
75990;SDS011;64673;52.276;10.560;2023-09-18T08:00:58;1.70;;;1.20;;
75990;SDS011;64673;52.276;10.560;2023-09-18T08:03:24;1.95;;;1.35;;
75990;SDS011;64673;52.276;10.560;2023-09-18T08:05:53;2.45;;;1.40;;
75990;SDS011;64673;52.276;10.560;2023-09-18T08:08:19;3.40;;;1.65;;
75990;SDS011;64673;52.276;10.560;2023-09-18T08:10:48;1.77;;;1.10;;
75990;SDS011;64673;52.276;10.560;2023-09-18T08:13:13;2.38;;;1.30;;
75990;SDS011;64673;52.276;10.560;2023-09-18T08:15:39;1.85;;;1.27;;
75990;SDS011;64673;52.276;10.560;2023-09-18T08:18:04;4.05;;;1.83;;
75990;SDS011;64673;52.276;10.560;2023-09-18T08:20:29;5.80;;;1.40;;
75990;SDS011;64673;52.276;10.560;2023-09-18T08:22:55;2.38;;;1.67;;
75990;SDS011;64673;52.276;10.560;2023-09-18T08:25:21;2.28;;;1.50;;
75990;SDS011;64673;52.276;10.560;2023-09-18T08:27:46;4.18;;;1.40;;
75990;SDS011;64673;52.276;10.560;2023-09-18T08:30:13;2.72;;;1.65;;
75990;SDS011;64673;52.276;10.560;2023-09-18T08:35:05;3.15;;;1.38;;
75990;SDS011;64673;52.276;10.560;2023-09-18T08:37:31;6.65;;;1.73;;
75990;SDS011;64673;52.276;10.560;2023-09-18T08:39:57;3.13;;;1.70;;
75990;SDS011;64673;52.276;10.560;2023-09-18T08:42:22;2.22;;;1.48;;
75990;SDS011;64673;52.276;10.560;2023-09-18T08:44:50;2.60;;;1.52;;
75990;SDS011;64673;52.276;10.560;2023-09-18T08:49:43;2.28;;;1.40;;
75990;SDS011;64673;52.276;10.560;2023-09-18T08:52:11;2.47;;;1.58;;
75990;SDS011;64673;52.276;10.560;2023-09-18T08:54:38;2.35;;;1.45;;
75990;SDS011;64673;52.276;10.560;2023-09-18T08:57:03;2.78;;;1.40;;
75990;SDS011;64673;52.276;10.560;2023-09-18T08:59:32;2.60;;;1.40;;
75990;SDS011;64673;52.276;10.560;2023-09-18T09:01:59;2.83;;;2.00;;
75990;SDS011;64673;52.276;10.560;2023-09-18T09:04:25;3.10;;;1.50;;
75990;SDS011;64673;52.276;10.560;2023-09-18T09:06:51;1.95;;;1.30;;
75990;SDS011;64673;52.276;10.560;2023-09-18T09:09:16;2.88;;;1.48;;
75990;SDS011;64673;52.276;10.560;2023-09-18T09:11:50;3.60;;;1.63;;
75990;SDS011;64673;52.276;10.560;2023-09-18T09:14:16;4.45;;;1.42;;
75990;SDS011;64673;52.276;10.560;2023-09-18T09:16:50;2.35;;;1.40;;
75990;SDS011;64673;52.276;10.560;2023-09-18T09:19:16;2.00;;;1.30;;
75990;SDS011;64673;52.276;10.560;2023-09-18T09:21:43;4.53;;;1.38;;
75990;SDS011;64673;52.276;10.560;2023-09-18T09:24:09;3.45;;;1.45;;
75990;SDS011;64673;52.276;10.560;2023-09-18T09:26:39;2.60;;;1.42;;
75990;SDS011;64673;52.276;10.560;2023-09-18T09:31:43;2.15;;;1.30;;
75990;SDS011;64673;52.276;10.560;2023-09-18T09:34:08;2.80;;;1.50;;
75990;SDS011;64673;52.276;10.560;2023-09-18T09:36:34;1.30;;;0.90;;
75990;SDS011;64673;52.276;10.560;2023-09-18T09:38:59;1.95;;;1.23;;
75990;SDS011;64673;52.276;10.560;2023-09-18T09:41:25;1.92;;;1.13;;
75990;SDS011;64673;52.276;10.560;2023-09-18T09:43:53;3.20;;;1.20;;
75990;SDS011;64673;52.276;10.560;2023-09-18T09:46:20;3.10;;;1.08;;
75990;SDS011;64673;52.276;10.560;2023-09-18T09:51:26;2.40;;;0.93;;
75990;SDS011;64673;52.276;10.560;2023-09-18T09:53:51;4.10;;;0.90;;
75990;SDS011;64673;52.276;10.560;2023-09-18T09:56:17;4.53;;;1.08;;
75990;SDS011;64673;52.276;10.560;2023-09-18T09:59:02;2.28;;;0.77;;
75990;SDS011;64673;52.276;10.560;2023-09-18T10:01:33;0.95;;;0.70;;
75990;SDS011;64673;52.276;10.560;2023-09-18T10:03:59;3.05;;;0.98;;
75990;SDS011;64673;52.276;10.560;2023-09-18T10:06:57;1.25;;;0.90;;
75990;SDS011;64673;52.276;10.560;2023-09-18T10:09:30;4.00;;;1.02;;
75990;SDS011;64673;52.276;10.560;2023-09-18T10:12:00;3.13;;;1.13;;
75990;SDS011;64673;52.276;10.560;2023-09-18T10:14:30;1.13;;;0.68;;
75990;SDS011;64673;52.276;10.560;2023-09-18T10:16:57;3.05;;;0.80;;
75990;SDS011;64673;52.276;10.560;2023-09-18T10:19:32;1.35;;;0.90;;
75990;SDS011;64673;52.276;10.560;2023-09-18T10:24:42;2.60;;;0.85;;
75990;SDS011;64673;52.276;10.560;2023-09-18T10:27:14;2.75;;;0.80;;
75990;SDS011;64673;52.276;10.560;2023-09-18T10:29:40;2.47;;;0.68;;
75990;SDS011;64673;52.276;10.560;2023-09-18T10:32:07;4.72;;;0.93;;
75990;SDS011;64673;52.276;10.560;2023-09-18T10:34:33;1.08;;;0.60;;
75990;SDS011;64673;52.276;10.560;2023-09-18T10:36:59;1.85;;;0.95;;
75990;SDS011;64673;52.276;10.560;2023-09-18T10:39:26;3.03;;;0.70;;
75990;SDS011;64673;52.276;10.560;2023-09-18T10:41:54;2.83;;;1.20;;
75990;SDS011;64673;52.276;10.560;2023-09-18T10:44:20;3.28;;;1.00;;
75990;SDS011;64673;52.276;10.560;2023-09-18T10:46:47;3.80;;;1.10;;
75990;SDS011;64673;52.276;10.560;2023-09-18T10:51:39;4.28;;;0.95;;
75990;SDS011;64673;52.276;10.560;2023-09-18T10:54:07;3.97;;;1.05;;
75990;SDS011;64673;52.276;10.560;2023-09-18T10:56:33;5.43;;;0.90;;
75990;SDS011;64673;52.276;10.560;2023-09-18T10:58:59;4.85;;;1.25;;
75990;SDS011;64673;52.276;10.560;2023-09-18T11:01:25;5.60;;;1.23;;
75990;SDS011;64673;52.276;10.560;2023-09-18T11:03:57;2.78;;;1.42;;
75990;SDS011;64673;52.276;10.560;2023-09-18T11:06:25;4.25;;;1.02;;
75990;SDS011;64673;52.276;10.560;2023-09-18T11:08:53;3.88;;;1.17;;
75990;SDS011;64673;52.276;10.560;2023-09-18T11:11:29;2.45;;;0.90;;
75990;SDS011;64673;52.276;10.560;2023-09-18T11:13:57;2.90;;;0.90;;
75990;SDS011;64673;52.276;10.560;2023-09-18T11:21:24;4.00;;;0.82;;
75990;SDS011;64673;52.276;10.560;2023-09-18T11:24:24;4.28;;;0.80;;
75990;SDS011;64673;52.276;10.560;2023-09-18T11:26:45;1.58;;;0.68;;
75990;SDS011;64673;52.276;10.560;2023-09-18T11:29:13;4.60;;;0.80;;
75990;SDS011;64673;52.276;10.560;2023-09-18T11:31:47;1.38;;;0.60;;
75990;SDS011;64673;52.276;10.560;2023-09-18T11:34:19;2.55;;;0.70;;
75990;SDS011;64673;52.276;10.560;2023-09-18T11:36:44;4.28;;;1.20;;
75990;SDS011;64673;52.276;10.560;2023-09-18T11:39:10;2.83;;;0.88;;
75990;SDS011;64673;52.276;10.560;2023-09-18T11:41:37;2.78;;;0.90;;
75990;SDS011;64673;52.276;10.560;2023-09-18T11:46:32;2.42;;;0.70;;
75990;SDS011;64673;52.276;10.560;2023-09-18T11:48:58;2.70;;;0.90;;
75990;SDS011;64673;52.276;10.560;2023-09-18T11:51:24;2.83;;;1.20;;
75990;SDS011;64673;52.276;10.560;2023-09-18T11:53:54;2.83;;;0.70;;
75990;SDS011;64673;52.276;10.560;2023-09-18T11:56:21;5.50;;;0.60;;
75990;SDS011;64673;52.276;10.560;2023-09-18T11:58:47;1.95;;;1.10;;
75990;SDS011;64673;52.276;10.560;2023-09-18T12:01:13;1.23;;;0.60;;
75990;SDS011;64673;52.276;10.560;2023-09-18T12:03:40;2.85;;;0.80;;
75990;SDS011;64673;52.276;10.560;2023-09-18T12:06:06;2.30;;;0.80;;
75990;SDS011;64673;52.276;10.560;2023-09-18T12:08:33;2.88;;;0.70;;
75990;SDS011;64673;52.276;10.560;2023-09-18T12:13:30;1.95;;;0.38;;
75990;SDS011;64673;52.276;10.560;2023-09-18T12:15:59;3.28;;;0.90;;
75990;SDS011;64673;52.276;10.560;2023-09-18T12:18:26;2.00;;;0.70;;
75990;SDS011;64673;52.276;10.560;2023-09-18T12:20:54;6.20;;;0.60;;
75990;SDS011;64673;52.276;10.560;2023-09-18T12:23:24;1.45;;;0.50;;
75990;SDS011;64673;52.276;10.560;2023-09-18T12:25:56;1.30;;;0.70;;
75990;SDS011;64673;52.276;10.560;2023-09-18T12:28:24;1.73;;;0.85;;
75990;SDS011;64673;52.276;10.560;2023-09-18T12:30:52;4.55;;;0.50;;
75990;SDS011;64673;52.276;10.560;2023-09-18T12:33:21;1.58;;;0.68;;
75990;SDS011;64673;52.276;10.560;2023-09-18T12:35:46;1.42;;;0.50;;
75990;SDS011;64673;52.276;10.560;2023-09-18T12:38:18;2.10;;;0.80;;
75990;SDS011;64673;52.276;10.560;2023-09-18T12:40:52;2.15;;;0.77;;
75990;SDS011;64673;52.276;10.560;2023-09-18T12:43:19;3.03;;;0.70;;
75990;SDS011;64673;52.276;10.560;2023-09-18T12:45:47;3.58;;;0.70;;
75990;SDS011;64673;52.276;10.560;2023-09-18T12:50:40;2.58;;;0.70;;
75990;SDS011;64673;52.276;10.560;2023-09-18T12:53:09;3.15;;;1.02;;
75990;SDS011;64673;52.276;10.560;2023-09-18T12:55:35;1.80;;;0.80;;
75990;SDS011;64673;52.276;10.560;2023-09-18T12:58:02;1.10;;;0.43;;
75990;SDS011;64673;52.276;10.560;2023-09-18T13:00:32;3.70;;;0.93;;
75990;SDS011;64673;52.276;10.560;2023-09-18T13:02:58;2.53;;;0.57;;
75990;SDS011;64673;52.276;10.560;2023-09-18T13:05:23;4.10;;;0.80;;
75990;SDS011;64673;52.276;10.560;2023-09-18T13:07:52;1.70;;;0.60;;
75990;SDS011;64673;52.276;10.560;2023-09-18T13:17:49;3.17;;;0.50;;
75990;SDS011;64673;52.276;10.560;2023-09-18T13:20:16;6.80;;;0.90;;
75990;SDS011;64673;52.276;10.560;2023-09-18T13:22:49;3.55;;;0.60;;
75990;SDS011;64673;52.276;10.560;2023-09-18T13:25:25;4.60;;;0.60;;
75990;SDS011;64673;52.276;10.560;2023-09-18T13:27:53;1.60;;;0.70;;
75990;SDS011;64673;52.276;10.560;2023-09-18T13:30:19;0.63;;;0.40;;
75990;SDS011;64673;52.276;10.560;2023-09-18T13:32:47;1.92;;;0.75;;
75990;SDS011;64673;52.276;10.560;2023-09-18T13:35:13;3.15;;;0.40;;
75990;SDS011;64673;52.276;10.560;2023-09-18T13:37:39;2.58;;;1.10;;
75990;SDS011;64673;52.276;10.560;2023-09-18T13:40:05;1.98;;;0.80;;
75990;SDS011;64673;52.276;10.560;2023-09-18T13:42:40;0.95;;;0.50;;
75990;SDS011;64673;52.276;10.560;2023-09-18T13:45:06;2.78;;;0.60;;
75990;SDS011;64673;52.276;10.560;2023-09-18T13:47:32;3.78;;;0.60;;
75990;SDS011;64673;52.276;10.560;2023-09-18T13:50:02;1.98;;;0.60;;
75990;SDS011;64673;52.276;10.560;2023-09-18T13:52:29;4.20;;;0.80;;
75990;SDS011;64673;52.276;10.560;2023-09-18T13:57:21;2.07;;;0.80;;
75990;SDS011;64673;52.276;10.560;2023-09-18T13:59:48;2.28;;;0.60;;
75990;SDS011;64673;52.276;10.560;2023-09-18T14:02:14;2.15;;;0.73;;
75990;SDS011;64673;52.276;10.560;2023-09-18T14:04:41;1.45;;;0.68;;
75990;SDS011;64673;52.276;10.560;2023-09-18T14:07:07;4.20;;;0.80;;
75990;SDS011;64673;52.276;10.560;2023-09-18T14:09:33;0.50;;;0.40;;
75990;SDS011;64673;52.276;10.560;2023-09-18T14:11:59;2.65;;;0.60;;
75990;SDS011;64673;52.276;10.560;2023-09-18T14:14:25;2.45;;;0.50;;
75990;SDS011;64673;52.276;10.560;2023-09-18T14:16:51;1.90;;;0.70;;
75990;SDS011;64673;52.276;10.560;2023-09-18T14:19:16;4.18;;;0.70;;
75990;SDS011;64673;52.276;10.560;2023-09-18T14:21:41;1.17;;;0.63;;
75990;SDS011;64673;52.276;10.560;2023-09-18T14:24:07;1.10;;;0.55;;
75990;SDS011;64673;52.276;10.560;2023-09-18T14:26:34;2.17;;;0.70;;
75990;SDS011;64673;52.276;10.560;2023-09-18T14:29:06;1.02;;;0.73;;
75990;SDS011;64673;52.276;10.560;2023-09-18T14:31:38;2.25;;;0.80;;
75990;SDS011;64673;52.276;10.560;2023-09-18T14:34:04;0.68;;;0.30;;
75990;SDS011;64673;52.276;10.560;2023-09-18T14:36:30;2.05;;;0.50;;
75990;SDS011;64673;52.276;10.560;2023-09-18T14:38:57;2.05;;;0.50;;
75990;SDS011;64673;52.276;10.560;2023-09-18T14:41:23;1.83;;;0.63;;
75990;SDS011;64673;52.276;10.560;2023-09-18T14:43:50;0.77;;;0.40;;
75990;SDS011;64673;52.276;10.560;2023-09-18T14:46:15;2.38;;;0.70;;
75990;SDS011;64673;52.276;10.560;2023-09-18T14:48:41;0.70;;;0.30;;
75990;SDS011;64673;52.276;10.560;2023-09-18T14:51:06;1.52;;;0.50;;
75990;SDS011;64673;52.276;10.560;2023-09-18T14:53:32;2.35;;;0.80;;
75990;SDS011;64673;52.276;10.560;2023-09-18T14:55:57;0.80;;;0.40;;
75990;SDS011;64673;52.276;10.560;2023-09-18T14:58:23;1.23;;;0.45;;
75990;SDS011;64673;52.276;10.560;2023-09-18T15:00:49;0.50;;;0.22;;
75990;SDS011;64673;52.276;10.560;2023-09-18T15:03:15;2.75;;;0.75;;
75990;SDS011;64673;52.276;10.560;2023-09-18T15:05:40;0.93;;;0.30;;
75990;SDS011;64673;52.276;10.560;2023-09-18T15:08:06;2.50;;;0.63;;
75990;SDS011;64673;52.276;10.560;2023-09-18T15:10:32;1.15;;;0.30;;
75990;SDS011;64673;52.276;10.560;2023-09-18T15:12:57;0.90;;;0.52;;
75990;SDS011;64673;52.276;10.560;2023-09-18T15:15:23;0.77;;;0.30;;
75990;SDS011;64673;52.276;10.560;2023-09-18T15:17:49;0.95;;;0.55;;